Time;durP1;ratioP1;P1;durP2;ratioP2;P2;SDS_P1;SDS_P2;PMS_P1;PMS_P2;Temp;Humidity;BMP_temperature;BMP_pressure;BME280_temperature;BME280_humidity;BME280_pressure;Samples;Min_cycle;Max_cycle;Signal;HPM_P1;HPM_P2
2022/09/26 00:00:42;;;;;;;62.38;40.50;;;10.30;99.90;;;;;;4972391;28;20124;-59
2022/09/26 00:03:09;;;;;;;67.25;42.45;;;10.30;99.90;;;;;;4972345;28;20530;-59
2022/09/26 00:05:37;;;;;;;70.20;42.67;;;10.30;99.90;;;;;;4972180;28;20585;-59
2022/09/26 00:08:02;;;;;;;;;;;10.30;99.90;;;;;;4972961;28;20046;-60
2022/09/26 00:10:28;;;;;;;64.00;40.40;;;10.30;99.90;;;;;;4972158;28;19917;-60
2022/09/26 00:12:55;;;;;;;60.70;39.78;;;10.30;99.90;;;;;;4971998;28;20034;-59
2022/09/26 00:15:21;;;;;;;69.07;39.70;;;10.30;99.90;;;;;;4954491;28;20019;-59
2022/09/26 00:17:46;;;;;;;57.72;39.30;;;10.30;99.90;;;;;;4971918;28;20037;-59
2022/09/26 00:20:12;;;;;;;65.45;41.50;;;10.30;99.90;;;;;;4971915;28;20019;-60
2022/09/26 00:22:38;;;;;;;57.55;37.50;;;10.20;99.90;;;;;;4971868;28;20082;-60
2022/09/26 00:25:04;;;;;;;58.33;39.38;;;10.20;99.90;;;;;;4953171;28;20394;-59
2022/09/26 00:27:29;;;;;;;61.58;39.90;;;10.20;99.90;;;;;;4971767;28;20023;-60
2022/09/26 00:29:55;;;;;;;54.28;37.05;;;10.20;99.90;;;;;;4971852;28;20034;-60
2022/09/26 00:32:21;;;;;;;62.10;37.10;;;10.20;99.90;;;;;;4972084;28;20033;-60
2022/09/26 00:34:46;;;;;;;59.00;37.08;;;10.10;99.90;;;;;;4971865;28;20027;-60
2022/09/26 00:37:12;;;;;;;61.50;38.20;;;10.20;99.90;;;;;;4970645;28;20034;-61
2022/09/26 00:39:38;;;;;;;55.33;37.53;;;10.20;99.90;;;;;;4971751;28;20501;-60
2022/09/26 00:42:03;;;;;;;58.10;39.00;;;10.20;99.90;;;;;;4971509;28;20080;-60
2022/09/26 00:44:44;;;;;;;61.10;39.42;;;10.20;99.90;;;;;;4971361;28;20768;-60
2022/09/26 00:47:42;;;;;;;53.15;37.25;;;10.20;99.90;;;;;;4971409;28;20031;-60
2022/09/26 00:50:22;;;;;;;58.63;40.03;;;10.20;99.90;;;;;;4955104;28;20094;-60
2022/09/26 00:53:03;;;;;;;60.08;41.50;;;10.20;99.90;;;;;;4968125;28;20475;-60
2022/09/26 00:55:35;;;;;;;68.22;43.30;;;10.20;99.90;;;;;;4953313;28;20030;-60
2022/09/26 00:58:15;;;;;;;62.55;39.90;;;10.10;99.90;;;;;;4952353;28;20122;-60
2022/09/26 01:00:42;;;;;;;62.08;41.40;;;10.10;99.90;;;;;;4984550;28;20086;-60
2022/09/26 01:03:08;;;;;;;;;;;10.10;99.90;;;;;;4971589;28;20065;-60
2022/09/26 01:05:36;;;;;;;66.28;41.13;;;10.20;99.90;;;;;;4970670;28;19957;-60
2022/09/26 01:08:03;;;;;;;58.60;38.88;;;10.20;99.90;;;;;;4971178;28;20034;-61
2022/09/26 01:10:29;;;;;;;61.55;39.72;;;10.20;99.90;;;;;;4970955;28;20682;-60
2022/09/26 01:12:56;;;;;;;64.22;38.97;;;10.20;99.90;;;;;;4971168;28;20025;-60
2022/09/26 01:15:22;;;;;;;;;;;10.20;99.90;;;;;;4971572;28;20031;-60
2022/09/26 01:17:48;;;;;;;57.72;36.90;;;10.30;99.90;;;;;;4971046;28;19968;-60
2022/09/26 01:20:28;;;;;;;56.30;37.55;;;10.30;99.90;;;;;;4965634;28;20062;-61
2022/09/26 01:23:08;;;;;;;51.10;35.42;;;10.30;99.90;;;;;;4971243;28;20035;-59
2022/09/26 01:25:56;;;;;;;53.00;34.67;;;10.40;99.90;;;;;;4965642;28;20031;-59
2022/09/26 01:28:41;;;;;;;62.75;38.40;;;10.40;99.90;;;;;;4966507;28;20114;-59
2022/09/26 01:31:10;;;;;;;44.67;30.85;;;10.40;99.90;;;;;;4984568;28;20430;-59
2022/09/26 01:33:57;;;;;;;50.10;33.42;;;10.60;99.90;;;;;;4965706;28;20030;-59
2022/09/26 01:36:40;;;;;;;44.90;32.85;;;10.60;99.90;;;;;;4966494;28;20026;-59
2022/09/26 01:39:24;;;;;;;43.00;31.08;;;10.60;99.90;;;;;;4984308;28;20027;-59
2022/09/26 01:42:11;;;;;;;46.03;32.47;;;10.70;99.90;;;;;;4970550;28;20031;-59
2022/09/26 01:44:39;;;;;;;45.72;30.50;;;10.80;99.90;;;;;;4961113;28;21697;-60
2022/09/26 01:47:40;;;;;;;50.10;33.22;;;10.90;99.90;;;;;;4968632;28;20027;-60
2022/09/26 01:50:31;;;;;;;46.30;32.80;;;10.80;99.90;;;;;;4965839;28;20098;-59
2022/09/26 01:53:05;;;;;;;45.80;32.55;;;10.80;99.90;;;;;;4965898;28;20434;-59
2022/09/26 01:56:11;;;;;;;45.92;31.33;;;10.70;99.90;;;;;;4970630;28;20026;-59
2022/09/26 01:59:03;;;;;;;52.70;31.55;;;10.70;99.90;;;;;;4948152;28;20041;-60
2022/09/26 02:01:34;;;;;;;49.40;30.98;;;10.70;99.90;;;;;;4967280;28;20047;-59
2022/09/26 02:04:07;;;;;;;45.53;30.88;;;10.70;99.90;;;;;;4970536;28;20030;-60
2022/09/26 02:06:43;;;;;;;43.47;30.17;;;10.60;99.90;;;;;;4970467;28;20050;-59
2022/09/26 02:09:18;;;;;;;46.90;31.65;;;10.60;99.90;;;;;;4970780;28;20101;-59
2022/09/26 02:11:48;;;;;;;43.85;30.08;;;10.60;99.90;;;;;;4970424;28;20026;-60
2022/09/26 02:14:23;;;;;;;43.90;30.85;;;10.60;99.90;;;;;;4970440;28;20023;-59
2022/09/26 02:16:51;;;;;;;41.15;28.98;;;10.60;99.90;;;;;;4970230;28;20030;-59
2022/09/26 02:19:32;;;;;;;44.55;27.95;;;10.70;99.90;;;;;;4970239;28;20054;-59
2022/09/26 02:22:00;;;;;;;45.88;31.25;;;10.70;99.90;;;;;;4965356;28;20045;-60
2022/09/26 02:24:27;;;;;;;42.78;28.38;;;10.80;99.90;;;;;;4970241;28;20503;-59
2022/09/26 02:26:53;;;;;;;35.13;26.77;;;10.80;99.90;;;;;;4970274;28;20382;-60
2022/09/26 02:29:19;;;;;;;43.92;29.23;;;10.90;99.90;;;;;;4969931;28;20030;-60
2022/09/26 02:32:03;;;;;;;36.45;27.70;;;10.90;99.90;;;;;;4970073;28;20375;-60
2022/09/26 02:34:29;;;;;;;37.78;27.63;;;11.00;99.90;;;;;;4970067;28;20031;-60
2022/09/26 02:36:56;;;;;;;36.50;27.17;;;11.00;99.90;;;;;;4964750;28;20018;-60
2022/09/26 02:39:22;;;;;;;37.72;26.50;;;11.00;99.90;;;;;;4952528;28;20019;-60
2022/09/26 02:42:30;;;;;;;31.30;23.13;;;11.00;99.90;;;;;;4970007;28;20055;-59
2022/09/26 02:45:11;;;;;;;40.10;25.92;;;11.00;99.90;;;;;;4964907;28;20259;-59
2022/09/26 02:47:55;;;;;;;41.88;26.52;;;11.00;99.90;;;;;;4964996;28;20538;-61
2022/09/26 02:50:20;;;;;;;36.10;24.20;;;11.10;99.90;;;;;;4965419;28;20109;-60
2022/09/26 02:53:17;;;;;;;35.97;25.67;;;11.10;99.90;;;;;;4969950;28;20114;-59
2022/09/26 02:56:14;;;;;;;39.92;29.42;;;11.10;99.90;;;;;;4965649;28;20034;-59
2022/09/26 02:58:54;;;;;;;40.28;29.40;;;11.10;99.90;;;;;;4959343;28;20105;-60
2022/09/26 03:01:34;;;;;;;30.13;22.30;;;11.10;99.90;;;;;;4968917;28;20037;-59
2022/09/26 03:04:22;;;;;;;37.13;27.98;;;11.10;99.90;;;;;;4982251;28;20494;-60
2022/09/26 03:06:52;;;;;;;43.30;30.98;;;11.10;99.90;;;;;;4966180;28;20047;-60
2022/09/26 03:09:19;;;;;;;44.70;31.67;;;11.00;99.90;;;;;;4969472;28;20015;-60
2022/09/26 03:11:46;;;;;;;47.90;32.85;;;11.10;99.90;;;;;;4969636;28;20030;-60
2022/09/26 03:14:14;;;;;;;47.08;32.70;;;11.00;99.90;;;;;;4969545;28;20019;-59
2022/09/26 03:16:43;;;;;;;52.35;32.72;;;11.00;99.90;;;;;;4969561;28;20093;-60
2022/09/26 03:19:13;;;;;;;46.72;32.42;;;10.90;99.90;;;;;;4969518;28;20030;-60
2022/09/26 03:21:39;;;;;;;46.80;32.33;;;10.90;99.90;;;;;;4969262;28;20435;-60
2022/09/26 03:24:05;;;;;;;33.28;23.88;;;10.90;99.90;;;;;;4951005;28;20023;-60
2022/09/26 03:26:31;;;;;;;34.97;25.13;;;10.90;99.90;;;;;;4969352;28;20073;-60
2022/09/26 03:28:57;;;;;;;41.30;28.38;;;11.00;99.90;;;;;;4951671;28;20390;-60
2022/09/26 03:31:24;;;;;;;44.83;31.45;;;11.10;99.90;;;;;;4969317;28;20031;-60
2022/09/26 03:33:53;;;;;;;44.78;31.83;;;11.00;99.90;;;;;;4969341;28;20691;-60
2022/09/26 03:36:21;;;;;;;49.00;31.88;;;11.00;99.90;;;;;;4951712;28;20030;-60
2022/09/26 03:38:47;;;;;;;43.50;31.92;;;10.90;99.90;;;;;;4969183;28;20031;-60
2022/09/26 03:41:13;;;;;;;38.15;27.42;;;11.00;99.90;;;;;;4984033;28;20029;-59
2022/09/26 03:43:42;;;;;;;39.58;26.60;;;10.90;99.90;;;;;;4969462;28;20145;-60
2022/09/26 03:46:10;;;;;;;39.40;25.27;;;11.00;99.90;;;;;;4969157;28;20490;-60
2022/09/26 03:48:36;;;;;;;46.08;29.75;;;11.00;99.90;;;;;;4964007;28;20069;-60
2022/09/26 03:51:09;;;;;;;36.75;25.63;;;11.10;99.90;;;;;;4969154;28;20600;-59
2022/09/26 03:53:38;;;;;;;40.35;29.33;;;11.20;99.90;;;;;;4969191;28;20359;-60
2022/09/26 03:56:13;;;;;;;44.67;32.33;;;11.20;99.90;;;;;;4968969;28;20037;-60
2022/09/26 03:58:40;;;;;;;45.42;33.05;;;11.10;99.90;;;;;;4967142;28;20031;-60
2022/09/26 04:01:10;;;;;;;47.92;33.97;;;11.10;99.90;;;;;;4969136;28;20042;-60
2022/09/26 04:03:38;;;;;;;52.53;32.65;;;11.10;99.90;;;;;;4964106;28;20034;-60
2022/09/26 04:06:04;;;;;;;;;;;11.10;99.90;;;;;;4970561;28;20135;-61
2022/09/26 04:08:30;;;;;;;53.05;34.55;;;11.00;99.90;;;;;;4970252;28;19906;-60
2022/09/26 04:11:05;;;;;;;49.15;35.78;;;11.10;99.90;;;;;;4970592;28;20395;-59
2022/09/26 04:13:32;;;;;;;46.28;34.08;;;11.00;99.90;;;;;;4973512;28;20034;-60
2022/09/26 04:15:59;;;;;;;47.67;34.20;;;11.00;99.90;;;;;;4973957;28;20031;-60
2022/09/26 04:18:26;;;;;;;52.03;33.78;;;11.00;99.90;;;;;;4973496;28;20634;-59
2022/09/26 04:21:06;;;;;;;49.83;34.70;;;11.00;99.90;;;;;;4973612;28;20489;-60
2022/09/26 04:23:34;;;;;;;50.67;34.38;;;11.00;99.90;;;;;;4956196;28;20126;-60
2022/09/26 04:26:04;;;;;;;47.78;33.45;;;10.90;99.90;;;;;;4973642;28;20035;-59
2022/09/26 04:28:31;;;;;;;56.33;33.75;;;11.00;99.90;;;;;;4973624;28;20031;-60
2022/09/26 04:30:57;;;;;;;47.05;34.40;;;10.90;99.90;;;;;;4973517;28;20470;-60
2022/09/26 04:33:23;;;;;;;50.55;35.17;;;11.00;99.90;;;;;;4973129;28;20046;-59
2022/09/26 04:35:49;;;;;;;37.92;26.27;;;10.90;99.90;;;;;;4972879;28;20039;-60
2022/09/26 04:38:17;;;;;;;50.47;34.42;;;10.90;99.90;;;;;;4972431;28;20027;-60
2022/09/26 04:40:43;;;;;;;49.72;33.00;;;10.90;99.90;;;;;;4972691;28;20034;-61
2022/09/26 04:43:09;;;;;;;38.58;28.17;;;10.90;99.90;;;;;;4971992;28;20042;-60
2022/09/26 04:45:35;;;;;;;44.83;32.72;;;11.00;99.90;;;;;;4972516;28;20035;-60
2022/09/26 04:48:01;;;;;;;49.53;32.75;;;11.00;99.90;;;;;;4972202;28;20054;-60
2022/09/26 04:50:27;;;;;;;55.05;39.42;;;11.00;99.90;;;;;;4972660;28;20102;-60
2022/09/26 04:52:53;;;;;;;37.92;26.65;;;11.00;99.90;;;;;;4972331;28;20026;-60
2022/09/26 04:55:19;;;;;;;37.10;25.88;;;11.10;99.90;;;;;;4972237;28;20035;-60
2022/09/26 04:57:48;;;;;;;37.03;25.52;;;11.10;99.90;;;;;;4972327;28;20324;-60
2022/09/26 05:00:14;;;;;;;33.60;24.92;;;11.20;99.90;;;;;;4955399;28;20026;-59
2022/09/26 05:02:40;;;;;;;31.77;22.73;;;11.30;99.90;;;;;;4972511;28;20035;-60
2022/09/26 05:05:08;;;;;;;36.15;25.50;;;11.30;99.90;;;;;;4972640;28;20113;-60
2022/09/26 05:07:39;;;;;;;39.42;25.85;;;11.30;99.90;;;;;;4954628;28;20031;-59
2022/09/26 05:10:05;;;;;;;42.55;28.77;;;11.30;99.90;;;;;;4972047;28;20030;-59
2022/09/26 05:12:31;;;;;;;42.45;29.80;;;11.40;99.90;;;;;;4971696;28;20364;-59
2022/09/26 05:14:57;;;;;;;49.80;32.95;;;11.30;99.90;;;;;;4971879;28;20026;-59
2022/09/26 05:17:23;;;;;;;44.30;28.95;;;11.30;99.90;;;;;;4972215;28;20482;-59
2022/09/26 05:19:48;;;;;;;41.70;30.63;;;11.40;99.90;;;;;;4972353;28;20034;-59
2022/09/26 05:22:14;;;;;;;43.20;31.20;;;11.40;99.90;;;;;;4972304;28;20053;-60
2022/09/26 05:27:24;;;;;;;54.92;36.85;;;11.30;99.90;;;;;;4958071;28;20073;-59
2022/09/26 05:29:51;;;;;;;57.05;36.80;;;11.30;99.90;;;;;;4972109;28;20436;-60
2022/09/26 05:32:19;;;;;;;50.25;34.85;;;11.30;99.90;;;;;;4972528;28;20031;-59
2022/09/26 05:34:47;;;;;;;49.90;34.10;;;11.30;99.90;;;;;;4972210;28;20061;-60
2022/09/26 05:37:13;;;;;;;50.83;34.88;;;11.30;99.90;;;;;;4971413;28;20121;-60
2022/09/26 05:42:31;;;;;;;49.83;33.58;;;11.40;99.90;;;;;;4955361;28;20051;-60
2022/09/26 05:44:56;;;;;;;53.22;33.58;;;11.40;99.90;;;;;;4971333;28;20126;-58
2022/09/26 05:47:25;;;;;;;55.05;35.58;;;11.40;99.90;;;;;;4972028;28;20122;-59
2022/09/26 05:49:50;;;;;;;51.65;36.42;;;11.40;99.90;;;;;;4954497;28;20153;-59
2022/09/26 05:52:16;;;;;;;57.47;41.33;;;11.50;99.90;;;;;;4971988;28;20126;-59
2022/09/26 05:54:41;;;;;;;62.65;39.63;;;11.50;99.90;;;;;;4971873;28;20080;-60
2022/09/26 05:57:07;;;;;;;56.70;37.60;;;11.50;99.90;;;;;;4972185;28;20031;-60
2022/09/26 05:59:33;;;;;;;54.22;38.08;;;11.60;99.90;;;;;;4971265;28;20545;-60
2022/09/26 06:01:59;;;;;;;66.63;40.83;;;11.60;99.90;;;;;;4971755;28;20053;-60
2022/09/26 06:04:25;;;;;;;58.92;38.33;;;11.60;99.90;;;;;;4971687;28;20026;-59
2022/09/26 06:06:50;;;;;;;63.65;39.92;;;11.70;99.90;;;;;;4971660;28;20378;-60
2022/09/26 06:09:16;;;;;;;57.40;39.58;;;11.70;99.90;;;;;;4971568;28;20106;-61
2022/09/26 06:11:41;;;;;;;53.38;37.90;;;11.80;99.90;;;;;;4954070;28;20443;-60
2022/09/26 06:14:08;;;;;;;60.33;37.63;;;11.80;99.90;;;;;;4971694;28;20038;-60
2022/09/26 06:16:34;;;;;;;57.13;39.55;;;11.90;99.90;;;;;;4986491;28;20057;-60
2022/09/26 06:19:01;;;;;;;53.10;36.08;;;11.90;99.90;;;;;;4971212;28;20030;-61
2022/09/26 06:21:27;;;;;;;59.95;37.20;;;12.00;99.90;;;;;;4986079;28;20066;-60
2022/09/26 06:23:52;;;;;;;58.33;36.90;;;12.00;99.90;;;;;;4971137;28;20131;-61
2022/09/26 06:26:20;;;;;;;57.70;37.67;;;12.00;99.90;;;;;;4953832;28;20033;-60
2022/09/26 06:28:48;;;;;;;56.33;36.60;;;12.00;99.90;;;;;;4971451;28;20031;-59
2022/09/26 06:31:16;;;;;;;50.28;36.25;;;12.10;99.90;;;;;;4971255;28;20039;-60
2022/09/26 06:33:42;;;;;;;55.97;37.22;;;12.10;99.90;;;;;;4971090;28;20041;-60
2022/09/26 06:36:10;;;;;;;53.28;36.97;;;12.10;99.90;;;;;;4970293;28;20451;-60
2022/09/26 06:38:36;;;;;;;;;;;12.20;99.90;;;;;;4971264;28;20023;-59
2022/09/26 06:41:01;;;;;;;54.45;36.40;;;12.20;99.90;;;;;;4970919;28;20000;-60
2022/09/26 06:43:27;;;;;;;60.35;37.33;;;12.30;99.90;;;;;;4970791;28;20353;-59
2022/09/26 06:45:53;;;;;;;54.80;34.83;;;12.30;99.90;;;;;;4971060;28;20081;-58
2022/09/26 06:48:24;;;;;;;45.90;32.95;;;12.30;99.90;;;;;;4970262;28;20031;-59
2022/09/26 06:50:55;;;;;;;49.47;32.58;;;12.40;99.90;;;;;;4970540;28;20607;-58
2022/09/26 06:53:20;;;;;;;51.95;33.85;;;12.30;99.90;;;;;;4970333;28;20029;-59
2022/09/26 06:55:46;;;;;;;49.45;34.22;;;12.40;99.90;;;;;;4970645;28;20030;-59
2022/09/26 06:58:12;;;;;;;49.83;34.53;;;12.40;99.90;;;;;;4970014;28;20038;-58
2022/09/26 07:00:38;;;;;;;53.28;35.05;;;12.40;99.90;;;;;;4952807;28;20525;-60
2022/09/26 07:03:04;;;;;;;56.00;32.72;;;12.40;99.90;;;;;;4970523;28;20084;-59
2022/09/26 07:05:30;;;;;;;53.45;33.53;;;12.50;99.90;;;;;;4970346;28;20130;-59
2022/09/26 07:07:57;;;;;;;51.42;34.30;;;12.50;99.90;;;;;;4970729;28;20545;-60
2022/09/26 07:10:24;;;;;;;47.63;33.63;;;12.50;99.90;;;;;;4970417;28;20406;-61
2022/09/26 07:12:50;;;;;;;51.95;36.70;;;12.60;99.90;;;;;;4970735;28;20253;-59
2022/09/26 07:15:18;;;;;;;50.08;32.33;;;12.50;99.90;;;;;;4970746;28;20031;-59
2022/09/26 07:17:46;;;;;;;53.67;33.80;;;12.50;99.90;;;;;;4970289;28;20050;-60
2022/09/26 07:20:18;;;;;;;47.35;33.40;;;12.50;99.90;;;;;;4970060;28;20027;-59
2022/09/26 07:22:45;;;;;;;47.47;32.90;;;12.60;99.90;;;;;;4970418;28;20572;-59
2022/09/26 07:25:11;;;;;;;44.08;33.58;;;12.60;99.90;;;;;;4970519;28;20023;-59
2022/09/26 07:27:37;;;;;;;50.42;34.92;;;12.60;99.90;;;;;;4970488;28;20077;-59
2022/09/26 07:30:05;;;;;;;53.95;33.97;;;12.60;99.90;;;;;;4970571;28;20022;-59
2022/09/26 07:32:31;;;;;;;52.10;36.33;;;12.60;99.90;;;;;;4964030;28;20114;-59
2022/09/26 07:35:03;;;;;;;51.25;35.60;;;12.60;99.90;;;;;;4969759;28;20029;-59
2022/09/26 07:37:30;;;;;;;55.75;38.30;;;12.70;99.90;;;;;;4969718;28;20035;-59
2022/09/26 07:39:56;;;;;;;54.20;36.75;;;12.70;99.90;;;;;;4970327;28;20119;-58
2022/09/26 07:42:22;;;;;;;50.42;38.22;;;12.70;99.90;;;;;;4968865;28;20498;-59
2022/09/26 07:44:48;;;;;;;58.30;38.53;;;12.70;99.90;;;;;;4970095;28;20019;-56
2022/09/26 07:50:12;;;;;;;55.75;37.58;;;12.80;99.90;;;;;;4965149;28;20181;-57
2022/09/26 07:52:45;;;;;;;51.90;37.55;;;12.80;99.90;;;;;;4973461;28;20129;-57
2022/09/26 07:55:14;;;;;;;55.97;39.67;;;12.80;99.90;;;;;;4969212;28;20106;-57
2022/09/26 07:57:40;;;;;;;58.47;37.65;;;12.80;99.90;;;;;;4956561;28;20615;-58
2022/09/26 08:00:11;;;;;;;59.28;38.75;;;12.80;99.90;;;;;;4974103;28;20060;-59
2022/09/26 08:02:41;;;;;;;55.63;37.58;;;12.80;99.90;;;;;;4973847;28;20557;-59
2022/09/26 08:05:09;;;;;;;53.63;38.10;;;12.90;99.90;;;;;;4966894;28;20047;-59
2022/09/26 08:07:35;;;;;;;51.30;36.13;;;13.00;99.90;;;;;;4954810;29;20050;-59
2022/09/26 08:10:03;;;;;;;53.03;35.00;;;13.00;99.90;;;;;;4944694;28;20407;-59
2022/09/26 08:12:37;;;;;;;57.25;35.38;;;13.00;99.90;;;;;;4961785;28;20271;-59
2022/09/26 08:15:06;;;;;;;51.60;36.08;;;13.10;99.90;;;;;;4969484;28;20514;-59
2022/09/26 08:17:33;;;;;;;48.55;33.17;;;13.10;99.90;;;;;;4971451;28;20026;-59
2022/09/26 08:20:00;;;;;;;44.13;33.07;;;13.10;99.90;;;;;;4971083;28;20566;-59
2022/09/26 08:22:26;;;;;;;49.53;34.63;;;13.10;99.90;;;;;;4971616;28;20038;-59
2022/09/26 08:24:52;;;;;;;51.90;34.35;;;13.20;99.90;;;;;;4969028;28;20034;-59
2022/09/26 08:27:20;;;;;;;50.70;33.45;;;13.20;99.90;;;;;;4969501;28;20090;-59
2022/09/26 08:29:47;;;;;;;49.92;34.85;;;13.20;99.90;;;;;;4972454;28;20022;-58
2022/09/26 08:32:15;;;;;;;49.92;33.08;;;13.20;99.90;;;;;;4972208;28;20042;-58
2022/09/26 08:34:41;;;;;;;59.60;34.95;;;13.20;99.90;;;;;;4968399;28;20085;-58
2022/09/26 08:37:06;;;;;;;45.78;32.47;;;13.20;99.90;;;;;;4971700;28;20027;-59
2022/09/26 08:39:32;;;;;;;51.10;34.67;;;13.20;99.90;;;;;;4972143;28;20371;-59
2022/09/26 08:42:19;;;;;;;45.72;34.20;;;13.30;99.90;;;;;;4971258;28;20038;-58
2022/09/26 08:48:13;;;;;;;46.83;30.08;;;13.20;99.90;;;;;;4943751;28;20046;-59
2022/09/26 08:50:50;;;;;;;44.70;30.75;;;13.20;99.90;;;;;;4971845;28;20035;-60
2022/09/26 08:53:21;;;;;;;48.90;34.83;;;13.30;99.90;;;;;;4972640;28;20042;-60
2022/09/26 08:55:48;;;;;;;45.45;32.35;;;13.30;99.90;;;;;;4972618;28;20364;-58
2022/09/26 08:58:39;;;;;;;44.75;32.10;;;13.30;99.90;;;;;;4970629;28;20081;-60
2022/09/26 09:01:14;;;;;;;45.38;31.15;;;13.30;99.90;;;;;;4965548;28;20039;-58
2022/09/26 09:03:51;;;;;;;47.50;32.75;;;13.40;99.90;;;;;;4971678;28;20035;-60
2022/09/26 09:06:18;;;;;;;43.85;31.65;;;13.50;99.90;;;;;;4971439;28;20054;-60
2022/09/26 09:08:51;;;;;;;42.40;29.98;;;13.50;99.90;;;;;;4971029;28;20131;-59
2022/09/26 09:11:37;;;;;;;39.05;29.50;;;13.50;99.90;;;;;;4970956;28;20026;-59
2022/09/26 09:14:11;;;;;;;35.00;26.95;;;13.50;99.90;;;;;;4970821;28;20081;-60
2022/09/26 09:16:55;;;;;;;37.08;27.10;;;13.60;99.90;;;;;;4970271;28;20029;-60
2022/09/26 09:19:40;;;;;;;37.20;25.65;;;13.60;99.90;;;;;;4968552;28;20023;-60
2022/09/26 09:22:05;;;;;;;34.58;25.67;;;13.70;99.90;;;;;;4972139;28;20039;-59
2022/09/26 09:24:46;;;;;;;34.47;25.30;;;13.80;99.90;;;;;;4971071;28;20148;-59
2022/09/26 09:27:20;;;;;;;32.78;24.27;;;13.80;99.90;;;;;;4971679;28;20034;-60
2022/09/26 09:29:49;;;;;;;28.73;22.20;;;14.00;99.90;;;;;;4972020;28;20046;-60
2022/09/26 09:32:19;;;;;;;29.02;20.85;;;14.00;99.90;;;;;;4971961;28;20054;-60
2022/09/26 09:34:48;;;;;;;30.52;21.88;;;14.00;99.90;;;;;;4971635;28;20070;-60
2022/09/26 09:37:35;;;;;;;30.55;21.40;;;14.10;99.90;;;;;;4971835;28;20327;-60
2022/09/26 09:40:02;;;;;;;34.63;24.73;;;14.10;99.90;;;;;;4971956;28;20096;-60
2022/09/26 09:42:48;;;;;;;32.50;22.75;;;14.10;99.90;;;;;;4971666;28;20035;-60
2022/09/26 09:45:24;;;;;;;423.15;326.90;;;14.10;99.90;;;;;;4968610;28;20031;-59
2022/09/26 09:47:50;;;;;;;31.08;22.27;;;14.30;99.90;;;;;;4971811;28;20046;-59
2022/09/26 09:50:41;;;;;;;29.70;22.10;;;14.20;99.90;;;;;;4971072;28;20053;-59
2022/09/26 09:53:38;;;;;;;24.13;16.67;;;14.30;99.90;;;;;;4949720;28;20043;-60
2022/09/26 09:56:11;;;;;;;23.27;16.10;;;14.50;99.90;;;;;;4970072;28;20019;-60
2022/09/26 09:58:51;;;;;;;20.58;14.50;;;14.80;99.90;;;;;;4971216;28;20031;-60
2022/09/26 10:01:24;;;;;;;18.23;13.77;;;15.10;99.90;;;;;;4971944;28;20101;-60
2022/09/26 10:04:10;;;;;;;24.20;13.82;;;15.30;99.90;;;;;;4953824;28;20043;-59
2022/09/26 10:06:36;;;;;;;19.05;14.68;;;15.50;99.90;;;;;;4964281;28;20411;-60
2022/09/26 10:09:19;;;;;;;19.95;13.25;;;15.20;99.90;;;;;;4971460;28;20035;-60
2022/09/26 10:11:46;;;;;;;17.77;12.35;;;15.10;99.90;;;;;;4971636;28;20034;-60
2022/09/26 10:14:32;;;;;;;21.50;11.45;;;15.00;99.90;;;;;;4972038;28;20037;-59
2022/09/26 10:17:10;;;;;;;17.42;12.38;;;15.00;99.90;;;;;;4971931;28;20042;-59
2022/09/26 10:19:37;;;;;;;15.43;11.68;;;14.90;99.90;;;;;;4971597;28;20026;-60
2022/09/26 10:22:24;;;;;;;19.35;13.50;;;14.80;99.90;;;;;;4970838;28;20053;-60
2022/09/26 10:24:58;;;;;;;31.00;21.30;;;14.90;99.90;;;;;;4951886;29;20396;-59
2022/09/26 10:30:45;;;;;;;23.95;13.77;;;15.00;99.90;;;;;;4970634;28;20038;-59
2022/09/26 10:33:27;;;;;;;21.45;13.98;;;15.10;99.90;;;;;;4970785;28;20029;-60
2022/09/26 10:36:03;;;;;;;22.02;14.95;;;15.00;99.90;;;;;;4967983;28;20034;-61
2022/09/26 10:38:30;;;;;;;20.67;15.45;;;15.10;99.90;;;;;;4964808;28;20043;-60
2022/09/26 10:40:59;;;;;;;18.60;12.77;;;15.10;99.90;;;;;;4967622;28;20118;-61
2022/09/26 10:43:36;;;;;;;14.75;11.38;;;15.50;99.90;;;;;;4967943;28;20039;-60
2022/09/26 10:46:16;;;;;;;17.38;12.70;;;16.10;99.90;;;;;;4952029;28;20026;-59
2022/09/26 10:48:57;;;;;;;18.38;11.88;;;16.20;99.90;;;;;;4952640;28;20061;-60
2022/09/26 10:51:44;;;;;;;16.13;11.32;;;15.80;99.90;;;;;;4965885;28;20047;-60
2022/09/26 10:54:11;;;;;;;15.98;11.32;;;15.80;99.90;;;;;;4964569;28;20058;-61
2022/09/26 10:56:42;;;;;;;;;;;16.20;99.90;;;;;;4970575;28;20139;-61
2022/09/26 10:59:12;;;;;;;16.10;9.30;;;16.70;99.90;;;;;;4960954;28;20346;-61
2022/09/26 11:01:47;;;;;;;12.48;9.18;;;17.20;99.90;;;;;;4959962;28;20043;-60
2022/09/26 11:07:33;;;;;;;13.93;8.65;;;16.90;99.90;;;;;;4967696;28;20125;-58
2022/09/26 11:10:05;;;;;;;13.65;8.95;;;16.70;99.90;;;;;;4968511;28;20050;-61
2022/09/26 11:12:38;;;;;;;15.23;9.20;;;16.80;99.90;;;;;;4950341;28;20030;-59
2022/09/26 11:15:13;;;;;;;13.65;9.38;;;16.90;99.90;;;;;;4967453;28;20625;-61
2022/09/26 11:17:46;;;;;;;18.20;9.60;;;17.50;99.90;;;;;;4966757;28;20027;-61
2022/09/26 11:20:16;;;;;;;11.32;7.65;;;17.40;99.90;;;;;;4969568;28;20520;-61
2022/09/26 11:23:01;;;;;;;11.80;8.18;;;17.50;99.90;;;;;;4971377;28;20061;-61
2022/09/26 11:25:48;;;;;;;14.43;9.07;;;18.20;99.90;;;;;;4971493;28;20098;-57
2022/09/26 11:28:22;;;;;;;9.07;6.43;;;18.40;99.90;;;;;;4966555;28;20118;-59
2022/09/26 11:30:52;;;;;;;11.93;8.05;;;17.50;99.90;;;;;;4974523;28;20479;-61
2022/09/26 11:33:18;;;;;;;10.43;6.45;;;17.80;99.90;;;;;;4953725;28;20518;-61
2022/09/26 11:36:01;;;;;;;11.20;7.28;;;18.10;99.90;;;;;;4970514;28;20041;-60
2022/09/26 11:38:53;;;;;;;9.90;6.57;;;17.90;99.90;;;;;;4974083;28;20011;-58
2022/09/26 11:41:57;;;;;;;20.23;13.75;;;18.00;99.90;;;;;;4969956;28;20495;-61
2022/09/26 11:44:58;;;;;;;11.45;8.32;;;18.40;99.90;;;;;;4970841;28;20042;-59
2022/09/26 11:47:35;;;;;;;12.88;7.90;;;18.50;99.90;;;;;;4928466;28;20042;-61
2022/09/26 11:50:23;;;;;;;9.93;6.68;;;18.70;99.90;;;;;;4964539;28;20035;-62
2022/09/26 11:53:10;;;;;;;10.77;7.32;;;19.10;99.90;;;;;;4960171;28;20034;-60
2022/09/26 12:09:10;;;;;;;8.73;6.68;;;19.30;99.90;;;;;;5103127;27;20505;-57
2022/09/26 12:12:08;;;;;;;8.70;7.18;;;18.60;99.90;;;;;;5105199;28;20032;-58
2022/09/26 12:15:01;;;;;;;9.48;7.43;;;18.60;99.90;;;;;;5105681;28;20028;-57
2022/09/26 12:17:59;;;;;;;9.82;7.32;;;18.60;99.90;;;;;;5103950;28;20127;-59
2022/09/26 12:20:33;;;;;;;10.27;7.38;;;19.00;99.90;;;;;;5050068;28;20814;-58
2022/09/26 12:23:11;;;;;;;13.80;7.85;;;19.40;99.90;;;;;;5103786;28;20424;-58
2022/09/26 12:25:37;;;;;;;;;;;19.30;99.90;;;;;;5105230;28;20494;-59
2022/09/26 12:28:19;;;;;;;9.35;7.47;;;19.10;99.90;;;;;;5104053;28;20258;-58
2022/09/26 12:31:10;;;;;;;10.35;7.97;;;18.90;99.90;;;;;;5105343;28;20106;-59
2022/09/26 12:33:57;;;;;;;9.82;7.43;;;18.90;99.90;;;;;;5106276;28;20031;-59
2022/09/26 12:36:39;;;;;;;10.30;8.07;;;19.10;99.90;;;;;;5103605;28;20047;-60
2022/09/26 12:39:13;;;;;;;11.10;8.95;;;19.30;99.90;;;;;;5105161;28;20046;-59
2022/09/26 12:41:44;;;;;;;12.57;9.50;;;18.80;99.90;;;;;;5105043;28;20031;-58
2022/09/26 12:44:30;;;;;;;13.10;10.18;;;18.60;99.90;;;;;;5105144;28;20049;-58
2022/09/26 12:47:32;;;;;;;13.85;10.20;;;18.40;99.90;;;;;;5106322;28;20475;-58
2022/09/26 12:50:24;;;;;;;13.05;10.18;;;18.10;99.90;;;;;;5103500;28;20429;-59
2022/09/26 12:52:50;;;;;;;13.88;10.60;;;17.90;99.90;;;;;;5082142;28;20764;-57
2022/09/26 12:55:33;;;;;;;12.93;10.13;;;17.90;99.90;;;;;;5105664;28;20046;-57
2022/09/26 12:58:27;;;;;;;12.05;9.57;;;17.70;99.90;;;;;;5105731;28;20356;-58
2022/09/26 13:01:39;;;;;;;12.45;10.02;;;17.60;99.90;;;;;;5103630;28;20471;-61
2022/09/26 13:04:24;;;;;;;11.57;8.77;;;17.70;99.90;;;;;;5103162;28;20026;-56
2022/09/26 13:07:15;;;;;;;11.80;8.52;;;18.00;99.90;;;;;;5103530;28;20028;-57
2022/09/26 13:09:54;;;;;;;14.63;8.23;;;18.30;99.90;;;;;;5087053;28;20032;-58
2022/09/26 13:12:38;;;;;;;10.45;8.23;;;17.90;99.90;;;;;;5089759;28;20016;-58
2022/09/26 13:15:33;;;;;;;15.00;9.38;;;17.60;99.90;;;;;;5087544;28;20420;-58
2022/09/26 13:18:14;;;;;;;9.85;8.25;;;17.30;99.90;;;;;;5117782;27;20086;-58
2022/09/26 13:20:48;;;;;;;13.70;9.20;;;16.90;99.90;;;;;;5089530;28;20094;-59
2022/09/26 13:23:27;;;;;;;11.73;9.18;;;16.90;99.90;;;;;;5088903;28;20481;-56
2022/09/26 13:25:58;;;;;;;12.65;9.43;;;17.00;99.90;;;;;;5082864;28;20417;-56
2022/09/26 13:28:27;;;;;;;14.30;9.52;;;17.00;99.90;;;;;;5091894;28;20393;-57
2022/09/26 13:31:01;;;;;;;12.73;9.85;;;16.90;99.90;;;;;;5089810;28;20020;-57